Time;durP1;ratioP1;P1;durP2;ratioP2;P2;SDS_P1;SDS_P2;PMS_P1;PMS_P2;Temp;Humidity;BMP_temperature;BMP_pressure;BME280_temperature;BME280_humidity;BME280_pressure;Samples;Min_cycle;Max_cycle;Signal;HPM_P1;HPM_P2
2023/11/13 00:08:48;;;;;;;7.3;3.3;;;;;;;5.7;78.35;;;;;
2023/11/13 00:18:48;;;;;;;7.3;3.3;;;;;;;5.74;78.07;;;;;
2023/11/13 00:29:48;;;;;;;7.3;3.3;;;;;;;5.8;77.87;;;;;
2023/11/13 00:39:48;;;;;;;8.9;4.4;;;;;;;5.9;77.74;;;;;
2023/11/13 00:50:48;;;;;;;8.9;4.4;;;;;;;6.08;77.46;;;;;
2023/11/13 01:00:48;;;;;;;8.9;4.4;;;;;;;5.95;76.86;;;;;
2023/11/13 01:10:48;;;;;;;5.1;2.3;;;;;;;5.95;76.08;;;;;
2023/11/13 01:20:48;;;;;;;5.1;2.3;;;;;;;6;76.18;;;;;
2023/11/13 01:31:48;;;;;;;5.1;2.3;;;;;;;5.96;75.81;;;;;
2023/11/13 01:42:48;;;;;;;4.9;2.4;;;;;;;5.81;76.27;;;;;
2023/11/13 01:52:48;;;;;;;4.9;2.4;;;;;;;5.77;76.26;;;;;
2023/11/13 02:03:48;;;;;;;4.9;2.4;;;;;;;5.86;75.73;;;;;
2023/11/13 02:14:48;;;;;;;4.2;2;;;;;;;5.81;75.91;;;;;
2023/11/13 02:25:49;;;;;;;4.2;2;;;;;;;5.84;75.68;;;;;
2023/11/13 02:35:48;;;;;;;4.2;2;;;;;;;5.7;76.31;;;;;
2023/11/13 02:45:48;;;;;;;3.6;2.1;;;;;;;5.68;76.04;;;;;
2023/11/13 02:56:48;;;;;;;3.6;2.1;;;;;;;5.68;76.4;;;;;
2023/11/13 03:07:48;;;;;;;4.9;2.8;;;;;;;5.72;76.05;;;;;
2023/11/13 03:17:48;;;;;;;4.9;2.8;;;;;;;5.63;76.55;;;;;
2023/11/13 03:28:48;;;;;;;4.9;2.8;;;;;;;5.76;75.98;;;;;
2023/11/13 03:39:48;;;;;;;3.8;2;;;;;;;5.86;74.67;;;;;
2023/11/13 03:49:48;;;;;;;3.8;2;;;;;;;5.84;74.81;;;;;
2023/11/13 03:59:48;;;;;;;3.8;2;;;;;;;5.73;75.52;;;;;
2023/11/13 04:09:49;;;;;;;5.1;2.4;;;;;;;5.69;75.1;;;;;
2023/11/13 04:20:48;;;;;;;5.1;2.4;;;;;;;5.74;74.73;;;;;
2023/11/13 04:30:48;;;;;;;5.1;2.4;;;;;;;5.57;74.37;;;;;
2023/11/13 04:40:48;;;;;;;4;2;;;;;;;5.53;73.96;;;;;
2023/11/13 04:50:48;;;;;;;4;2;;;;;;;5.54;73.91;;;;;
2023/11/13 05:00:48;;;;;;;4;2;;;;;;;5.27;74.99;;;;;
2023/11/13 05:11:48;;;;;;;4.4;2;;;;;;;5.1;75.46;;;;;
2023/11/13 05:21:48;;;;;;;4.4;2;;;;;;;4.98;77.15;;;;;
2023/11/13 05:32:48;;;;;;;4.4;2;;;;;;;5.09;76.7;;;;;
2023/11/13 05:42:48;;;;;;;4;1.7;;;;;;;5.1;76.44;;;;;
2023/11/13 05:52:48;;;;;;;4;1.7;;;;;;;5.12;76.29;;;;;
2023/11/13 06:02:48;;;;;;;4;1.7;;;;;;;5.15;76.81;;;;;
2023/11/13 06:13:48;;;;;;;4.2;2.2;;;;;;;5.24;76.32;;;;;
2023/11/13 06:23:48;;;;;;;4.2;2.2;;;;;;;5.42;75.93;;;;;
2023/11/13 06:33:48;;;;;;;4.2;2.2;;;;;;;5.52;76.62;;;;;
2023/11/13 06:44:48;;;;;;;5.5;2.9;;;;;;;5.77;75.03;;;;;
2023/11/13 06:55:48;;;;;;;5.5;2.9;;;;;;;5.98;74.71;;;;;
2023/11/13 07:05:49;;;;;;;5.5;2.9;;;;;;;6.14;74.76;;;;;
2023/11/13 07:16:48;;;;;;;4.7;1.6;;;;;;;6.29;73.83;;;;;
2023/11/13 07:26:48;;;;;;;4.7;1.6;;;;;;;6.64;73.33;;;;;
2023/11/13 07:36:48;;;;;;;4.7;1.6;;;;;;;6.83;73.03;;;;;
2023/11/13 07:46:48;;;;;;;3.6;2;;;;;;;6.88;73.08;;;;;
2023/11/13 07:57:48;;;;;;;3.6;2;;;;;;;7.35;72.94;;;;;
2023/11/13 08:08:49;;;;;;;4.8;2.6;;;;;;;7.63;72.77;;;;;
2023/11/13 08:18:48;;;;;;;4.8;2.6;;;;;;;7.68;73.93;;;;;
2023/11/13 08:29:49;;;;;;;4.8;2.6;;;;;;;7.97;72.19;;;;;
2023/11/13 08:39:48;;;;;;;6.4;4;;;;;;;8.09;70.53;;;;;
2023/11/13 08:50:48;;;;;;;6.4;4;;;;;;;8.42;70.34;;;;;
2023/11/13 09:01:48;;;;;;;6.4;4;;;;;;;8.7;68.69;;;;;
2023/11/13 09:11:48;;;;;;;10.4;5.6;;;;;;;9.22;67.64;;;;;
2023/11/13 09:22:48;;;;;;;10.4;5.6;;;;;;;9.3;67.66;;;;;
2023/11/13 09:32:48;;;;;;;10.4;5.6;;;;;;;9.33;65.19;;;;;
2023/11/13 09:42:48;;;;;;;11;6.7;;;;;;;9.51;66.42;;;;;
2023/11/13 09:52:50;;;;;;;11;6.7;;;;;;;9.84;65.6;;;;;
2023/11/13 10:02:51;;;;;;;11;6.7;;;;;;;9.76;65.75;;;;;
2023/11/13 10:13:48;;;;;;;7.3;4.6;;;;;;;9.82;65.69;;;;;
2023/11/13 10:24:48;;;;;;;7.3;4.6;;;;;;;9.8;64.97;;;;;
2023/11/13 10:34:49;;;;;;;7.3;4.6;;;;;;;9.27;64.98;;;;;
2023/11/13 10:45:48;;;;;;;10.2;4.1;;;;;;;9.31;66.88;;;;;
2023/11/13 10:55:49;;;;;;;10.2;4.1;;;;;;;9.57;66.45;;;;;
2023/11/13 11:06:49;;;;;;;10.2;4.1;;;;;;;9.57;66.36;;;;;
2023/11/13 11:17:48;;;;;;;7.8;4.1;;;;;;;9.72;64.28;;;;;
2023/11/13 11:27:48;;;;;;;7.8;4.1;;;;;;;9.5;63.83;;;;;
2023/11/13 11:37:49;;;;;;;6.2;3.6;;;;;;;9.51;63.28;;;;;
2023/11/13 11:48:48;;;;;;;6.2;3.6;;;;;;;9.33;63.33;;;;;
2023/11/13 11:58:48;;;;;;;6.2;3.6;;;;;;;9.2;63.25;;;;;
2023/11/13 12:09:48;;;;;;;7.2;3.1;;;;;;;9.19;62.55;;;;;
2023/11/13 12:20:49;;;;;;;7.2;3.1;;;;;;;9.11;62.34;;;;;
2023/11/13 12:30:49;;;;;;;7.2;3.1;;;;;;;9.25;61.1;;;;;
2023/11/13 12:41:51;;;;;;;7.6;3;;;;;;;9.03;59.85;;;;;
2023/11/13 12:52:48;;;;;;;7.6;3;;;;;;;9.15;60.28;;;;;
2023/11/13 13:02:49;;;;;;;7.6;3;;;;;;;8.97;57.91;;;;;
2023/11/13 13:12:50;;;;;;;4.8;2.1;;;;;;;9.14;57.84;;;;;
2023/11/13 13:23:49;;;;;;;4.8;2.1;;;;;;;9.02;56.68;;;;;
2023/11/13 13:33:50;;;;;;;4.8;2.1;;;;;;;8.59;56.29;;;;;
2023/11/13 13:44:48;;;;;;;4.6;1.9;;;;;;;8.49;57.8;;;;;
2023/11/13 13:54:50;;;;;;;4.6;1.9;;;;;;;8.57;58.14;;;;;
2023/11/13 14:05:49;;;;;;;4.6;1.9;;;;;;;8.63;57.43;;;;;
2023/11/13 14:15:49;;;;;;;4.8;2.1;;;;;;;8.48;58.33;;;;;
2023/11/13 14:26:48;;;;;;;4.8;2.1;;;;;;;8.21;59.59;;;;;
2023/11/13 14:37:48;;;;;;;7.5;2.8;;;;;;;7.94;60.39;;;;;
2023/11/13 14:47:49;;;;;;;7.5;2.8;;;;;;;7.68;62.14;;;;;
2023/11/13 14:58:48;;;;;;;7.5;2.8;;;;;;;7.09;64.58;;;;;
2023/11/13 15:08:49;;;;;;;7.1;3.1;;;;;;;6.48;65.44;;;;;
2023/11/13 15:19:48;;;;;;;7.1;3.1;;;;;;;5.89;67.6;;;;;
2023/11/13 15:30:48;;;;;;;7.1;3.1;;;;;;;5.25;70.75;;;;;
2023/11/13 15:40:49;;;;;;;58.6;29.9;;;;;;;4.88;71.47;;;;;
2023/11/13 15:51:48;;;;;;;58.6;29.9;;;;;;;4.55;72.63;;;;;
2023/11/13 16:01:48;;;;;;;58.6;29.9;;;;;;;4.25;73.55;;;;;
2023/11/13 16:11:48;;;;;;;14.5;8.1;;;;;;;4;75.12;;;;;
2023/11/13 16:21:49;;;;;;;14.5;8.1;;;;;;;3.72;76.27;;;;;
2023/11/13 16:31:49;;;;;;;14.5;8.1;;;;;;;3.53;77.08;;;;;
2023/11/13 16:42:49;;;;;;;31.8;19.9;;;;;;;3.53;76.45;;;;;
2023/11/13 16:52:49;;;;;;;31.8;19.9;;;;;;;3.6;76.06;;;;;
2023/11/13 17:02:49;;;;;;;31.8;19.9;;;;;;;3.59;75.87;;;;;
2023/11/13 17:13:50;;;;;;;51;25.5;;;;;;;3.45;76.42;;;;;
2023/11/13 17:24:49;;;;;;;51;25.5;;;;;;;3.36;77.24;;;;;
2023/11/13 17:34:49;;;;;;;51;25.5;;;;;;;3.34;77.51;;;;;
2023/11/13 17:45:49;;;;;;;30.9;15.7;;;;;;;3.3;78.55;;;;;
2023/11/13 17:56:50;;;;;;;30.9;15.7;;;;;;;3.44;79.61;;;;;
2023/11/13 18:06:49;;;;;;;33.8;16.3;;;;;;;3.55;81.47;;;;;
2023/11/13 18:16:49;;;;;;;33.8;16.3;;;;;;;3.75;81.08;;;;;
2023/11/13 18:26:48;;;;;;;33.8;16.3;;;;;;;3.94;81.76;;;;;
2023/11/13 18:36:49;;;;;;;15.1;9.4;;;;;;;4.17;81.41;;;;;
2023/11/13 18:47:49;;;;;;;15.1;9.4;;;;;;;4.4;81.54;;;;;
2023/11/13 18:57:49;;;;;;;15.1;9.4;;;;;;;4.7;81.04;;;;;
2023/11/13 19:08:48;;;;;;;15.8;7.5;;;;;;;4.92;80.66;;;;;
2023/11/13 19:18:51;;;;;;;15.8;7.5;;;;;;;5.16;80.45;;;;;
2023/11/13 19:29:49;;;;;;;15.8;7.5;;;;;;;5.11;78.53;;;;;
2023/11/13 19:40:49;;;;;;;31.3;18.4;;;;;;;5.02;78.36;;;;;
2023/11/13 19:50:49;;;;;;;31.3;18.4;;;;;;;4.86;79.29;;;;;
2023/11/13 20:01:49;;;;;;;31.3;18.4;;;;;;;4.83;79.69;;;;;
2023/11/13 20:11:49;;;;;;;39.2;22.6;;;;;;;4.91;78.94;;;;;
2023/11/13 20:21:49;;;;;;;39.2;22.6;;;;;;;4.79;79.25;;;;;
2023/11/13 20:32:49;;;;;;;39.2;22.6;;;;;;;4.69;79.73;;;;;
2023/11/13 20:42:49;;;;;;;32.8;18.9;;;;;;;4.68;79.87;;;;;
2023/11/13 20:52:49;;;;;;;32.8;18.9;;;;;;;4.63;80.43;;;;;
2023/11/13 21:03:49;;;;;;;32.8;18.9;;;;;;;4.59;80.45;;;;;
2023/11/13 21:13:49;;;;;;;55.8;30.2;;;;;;;4.59;81.52;;;;;
2023/11/13 21:23:49;;;;;;;55.8;30.2;;;;;;;4.66;81.82;;;;;
2023/11/13 21:33:49;;;;;;;55.8;30.2;;;;;;;4.81;81.65;;;;;
2023/11/13 21:43:49;;;;;;;39.5;23.1;;;;;;;4.89;81.11;;;;;
2023/11/13 21:54:49;;;;;;;39.5;23.1;;;;;;;4.83;81.73;;;;;
2023/11/13 22:04:49;;;;;;;39.5;23.1;;;;;;;4.83;81.93;;;;;
2023/11/13 22:15:51;;;;;;;45.3;26.4;;;;;;;5.2;82.06;;;;;
2023/11/13 22:26:49;;;;;;;45.3;26.4;;;;;;;5.47;82.43;;;;;
2023/11/13 22:36:49;;;;;;;35.7;21;;;;;;;5.81;82.76;;;;;
2023/11/13 22:46:49;;;;;;;35.7;21;;;;;;;6.03;83.55;;;;;
2023/11/13 22:57:49;;;;;;;35.7;21;;;;;;;6.4;83.51;;;;;
2023/11/13 23:08:49;;;;;;;25.6;15.7;;;;;;;6.1;81.25;;;;;
2023/11/13 23:18:49;;;;;;;25.6;15.7;;;;;;;6.07;82.75;;;;;
2023/11/13 23:28:49;;;;;;;25.6;15.7;;;;;;;6.37;84.1;;;;;
2023/11/13 23:39:55;;;;;;;28.4;18.1;;;;;;;6.75;84.9;;;;;
2023/11/13 23:50:49;;;;;;;28.4;18.1;;;;;;;7.19;86.09;;;;;
